sensor_id;sensor_type;location;lat;lon;timestamp;P1;durP1;ratioP1;P2;durP2;ratioP2
68449;SDS011;67758;39.572;2.652;2024-03-07T00:00:16;7.70;;;2.00;;
68449;SDS011;67758;39.572;2.652;2024-03-07T00:02:50;6.53;;;1.88;;
68449;SDS011;67758;39.572;2.652;2024-03-07T00:05:20;10.38;;;2.28;;
68449;SDS011;67758;39.572;2.652;2024-03-07T00:07:49;9.48;;;2.08;;
68449;SDS011;67758;39.572;2.652;2024-03-07T00:10:15;8.20;;;1.67;;
68449;SDS011;67758;39.572;2.652;2024-03-07T00:12:41;7.47;;;2.00;;
68449;SDS011;67758;39.572;2.652;2024-03-07T00:15:08;8.70;;;2.08;;
68449;SDS011;67758;39.572;2.652;2024-03-07T00:17:36;6.82;;;1.50;;
68449;SDS011;67758;39.572;2.652;2024-03-07T00:20:02;7.63;;;1.60;;
68449;SDS011;67758;39.572;2.652;2024-03-07T00:22:30;6.97;;;1.60;;
68449;SDS011;67758;39.572;2.652;2024-03-07T00:24:56;11.27;;;1.80;;
68449;SDS011;67758;39.572;2.652;2024-03-07T00:27:22;8.35;;;1.75;;
68449;SDS011;67758;39.572;2.652;2024-03-07T00:29:48;6.50;;;1.52;;
68449;SDS011;67758;39.572;2.652;2024-03-07T00:32:22;6.95;;;2.00;;
68449;SDS011;67758;39.572;2.652;2024-03-07T00:34:48;8.00;;;1.77;;
68449;SDS011;67758;39.572;2.652;2024-03-07T00:37:17;7.55;;;1.70;;
68449;SDS011;67758;39.572;2.652;2024-03-07T00:39:43;8.48;;;1.90;;
68449;SDS011;67758;39.572;2.652;2024-03-07T00:42:09;7.97;;;1.80;;
68449;SDS011;67758;39.572;2.652;2024-03-07T00:44:35;7.25;;;1.92;;
68449;SDS011;67758;39.572;2.652;2024-03-07T00:47:01;7.72;;;1.77;;
68449;SDS011;67758;39.572;2.652;2024-03-07T00:49:30;7.53;;;1.98;;
68449;SDS011;67758;39.572;2.652;2024-03-07T00:51:56;7.10;;;1.53;;
68449;SDS011;67758;39.572;2.652;2024-03-07T00:54:23;7.45;;;1.70;;
68449;SDS011;67758;39.572;2.652;2024-03-07T00:56:48;12.60;;;2.30;;
68449;SDS011;67758;39.572;2.652;2024-03-07T00:59:17;7.63;;;1.97;;
68449;SDS011;67758;39.572;2.652;2024-03-07T01:01:44;8.68;;;2.35;;
68449;SDS011;67758;39.572;2.652;2024-03-07T01:04:10;10.43;;;2.00;;
68449;SDS011;67758;39.572;2.652;2024-03-07T01:06:36;11.35;;;2.50;;
68449;SDS011;67758;39.572;2.652;2024-03-07T01:09:02;7.47;;;2.20;;
68449;SDS011;67758;39.572;2.652;2024-03-07T01:11:28;7.28;;;2.08;;
68449;SDS011;67758;39.572;2.652;2024-03-07T01:13:54;9.00;;;2.07;;
68449;SDS011;67758;39.572;2.652;2024-03-07T01:16:21;7.57;;;2.07;;
68449;SDS011;67758;39.572;2.652;2024-03-07T01:18:47;6.82;;;1.60;;
68449;SDS011;67758;39.572;2.652;2024-03-07T01:21:13;6.60;;;1.75;;
68449;SDS011;67758;39.572;2.652;2024-03-07T01:23:39;7.20;;;1.70;;
68449;SDS011;67758;39.572;2.652;2024-03-07T01:26:04;8.38;;;1.45;;
68449;SDS011;67758;39.572;2.652;2024-03-07T01:28:30;7.40;;;1.80;;
68449;SDS011;67758;39.572;2.652;2024-03-07T01:30:56;10.27;;;2.55;;
68449;SDS011;67758;39.572;2.652;2024-03-07T01:33:23;6.45;;;1.77;;
68449;SDS011;67758;39.572;2.652;2024-03-07T01:35:49;7.13;;;1.60;;
68449;SDS011;67758;39.572;2.652;2024-03-07T01:38:15;7.43;;;1.48;;
68449;SDS011;67758;39.572;2.652;2024-03-07T01:40:42;8.27;;;1.40;;
68449;SDS011;67758;39.572;2.652;2024-03-07T01:43:09;5.75;;;1.30;;
68449;SDS011;67758;39.572;2.652;2024-03-07T01:45:35;6.15;;;1.45;;
68449;SDS011;67758;39.572;2.652;2024-03-07T01:48:05;6.13;;;1.30;;
68449;SDS011;67758;39.572;2.652;2024-03-07T01:50:31;7.70;;;1.63;;
68449;SDS011;67758;39.572;2.652;2024-03-07T01:52:57;4.95;;;0.95;;
68449;SDS011;67758;39.572;2.652;2024-03-07T01:55:24;5.82;;;1.40;;
68449;SDS011;67758;39.572;2.652;2024-03-07T01:57:51;7.38;;;1.30;;
68449;SDS011;67758;39.572;2.652;2024-03-07T02:00:16;5.47;;;1.30;;
68449;SDS011;67758;39.572;2.652;2024-03-07T02:02:43;6.03;;;1.33;;
68449;SDS011;67758;39.572;2.652;2024-03-07T02:05:12;6.55;;;1.23;;
68449;SDS011;67758;39.572;2.652;2024-03-07T02:07:38;7.13;;;1.37;;
68449;SDS011;67758;39.572;2.652;2024-03-07T02:10:04;7.00;;;1.48;;
68449;SDS011;67758;39.572;2.652;2024-03-07T02:12:31;5.00;;;0.90;;
68449;SDS011;67758;39.572;2.652;2024-03-07T02:14:58;6.15;;;1.40;;
68449;SDS011;67758;39.572;2.652;2024-03-07T02:17:24;5.80;;;1.17;;
68449;SDS011;67758;39.572;2.652;2024-03-07T02:19:51;5.85;;;1.00;;
68449;SDS011;67758;39.572;2.652;2024-03-07T02:22:17;5.28;;;1.13;;
68449;SDS011;67758;39.572;2.652;2024-03-07T02:24:43;6.22;;;1.10;;
68449;SDS011;67758;39.572;2.652;2024-03-07T02:27:10;4.78;;;1.08;;
68449;SDS011;67758;39.572;2.652;2024-03-07T02:29:36;6.90;;;1.10;;
68449;SDS011;67758;39.572;2.652;2024-03-07T02:32:02;6.28;;;0.93;;
68449;SDS011;67758;39.572;2.652;2024-03-07T02:34:28;7.38;;;0.98;;
68449;SDS011;67758;39.572;2.652;2024-03-07T02:36:54;6.78;;;1.02;;
68449;SDS011;67758;39.572;2.652;2024-03-07T02:39:20;5.40;;;0.80;;
68449;SDS011;67758;39.572;2.652;2024-03-07T02:41:46;7.47;;;1.52;;
68449;SDS011;67758;39.572;2.652;2024-03-07T02:44:15;5.88;;;1.08;;
68449;SDS011;67758;39.572;2.652;2024-03-07T02:46:41;6.70;;;0.77;;
68449;SDS011;67758;39.572;2.652;2024-03-07T02:49:07;3.97;;;0.60;;
68449;SDS011;67758;39.572;2.652;2024-03-07T02:51:33;5.35;;;1.02;;
68449;SDS011;67758;39.572;2.652;2024-03-07T02:53:59;4.60;;;0.93;;
68449;SDS011;67758;39.572;2.652;2024-03-07T02:56:24;6.15;;;0.80;;
68449;SDS011;67758;39.572;2.652;2024-03-07T02:58:53;4.57;;;0.70;;
68449;SDS011;67758;39.572;2.652;2024-03-07T03:01:19;4.97;;;0.60;;
68449;SDS011;67758;39.572;2.652;2024-03-07T03:03:44;5.47;;;0.77;;
68449;SDS011;67758;39.572;2.652;2024-03-07T03:06:10;7.57;;;0.70;;
68449;SDS011;67758;39.572;2.652;2024-03-07T03:08:36;4.80;;;0.70;;
68449;SDS011;67758;39.572;2.652;2024-03-07T03:11:02;5.70;;;0.80;;
68449;SDS011;67758;39.572;2.652;2024-03-07T03:13:28;4.45;;;0.73;;
68449;SDS011;67758;39.572;2.652;2024-03-07T03:15:55;8.15;;;0.80;;
68449;SDS011;67758;39.572;2.652;2024-03-07T03:18:23;4.77;;;0.70;;
68449;SDS011;67758;39.572;2.652;2024-03-07T03:20:49;4.05;;;0.65;;
68449;SDS011;67758;39.572;2.652;2024-03-07T03:23:16;5.72;;;0.90;;
68449;SDS011;67758;39.572;2.652;2024-03-07T03:25:42;4.53;;;0.53;;
68449;SDS011;67758;39.572;2.652;2024-03-07T03:28:08;4.13;;;1.13;;
68449;SDS011;67758;39.572;2.652;2024-03-07T03:30:37;5.70;;;0.82;;
68449;SDS011;67758;39.572;2.652;2024-03-07T03:33:06;6.00;;;0.47;;
68449;SDS011;67758;39.572;2.652;2024-03-07T03:35:33;3.70;;;0.50;;
68449;SDS011;67758;39.572;2.652;2024-03-07T03:37:59;4.93;;;0.50;;
68449;SDS011;67758;39.572;2.652;2024-03-07T03:40:25;3.53;;;0.50;;
68449;SDS011;67758;39.572;2.652;2024-03-07T03:42:51;8.38;;;0.70;;
68449;SDS011;67758;39.572;2.652;2024-03-07T03:45:17;3.40;;;0.50;;
68449;SDS011;67758;39.572;2.652;2024-03-07T03:47:43;4.00;;;0.50;;
68449;SDS011;67758;39.572;2.652;2024-03-07T03:50:09;3.67;;;0.47;;
68449;SDS011;67758;39.572;2.652;2024-03-07T03:52:36;4.60;;;0.60;;
68449;SDS011;67758;39.572;2.652;2024-03-07T03:55:02;4.53;;;0.57;;
68449;SDS011;67758;39.572;2.652;2024-03-07T03:57:31;4.13;;;0.50;;
68449;SDS011;67758;39.572;2.652;2024-03-07T03:59:57;3.67;;;0.52;;
68449;SDS011;67758;39.572;2.652;2024-03-07T04:02:23;5.18;;;0.70;;
68449;SDS011;67758;39.572;2.652;2024-03-07T04:04:49;3.97;;;0.50;;
68449;SDS011;67758;39.572;2.652;2024-03-07T04:07:16;4.72;;;0.68;;
68449;SDS011;67758;39.572;2.652;2024-03-07T04:09:43;3.45;;;0.57;;
68449;SDS011;67758;39.572;2.652;2024-03-07T04:12:09;4.65;;;0.50;;
68449;SDS011;67758;39.572;2.652;2024-03-07T04:14:41;3.38;;;0.60;;
68449;SDS011;67758;39.572;2.652;2024-03-07T04:17:07;5.10;;;0.60;;
68449;SDS011;67758;39.572;2.652;2024-03-07T04:19:40;3.03;;;0.40;;
68449;SDS011;67758;39.572;2.652;2024-03-07T04:22:06;5.28;;;0.40;;
68449;SDS011;67758;39.572;2.652;2024-03-07T04:24:33;5.25;;;0.60;;
68449;SDS011;67758;39.572;2.652;2024-03-07T04:26:59;3.42;;;0.40;;
68449;SDS011;67758;39.572;2.652;2024-03-07T04:29:28;3.17;;;0.40;;
68449;SDS011;67758;39.572;2.652;2024-03-07T04:31:58;3.78;;;0.77;;
68449;SDS011;67758;39.572;2.652;2024-03-07T04:34:24;5.43;;;0.50;;
68449;SDS011;67758;39.572;2.652;2024-03-07T04:36:50;4.07;;;0.50;;
68449;SDS011;67758;39.572;2.652;2024-03-07T04:39:16;6.63;;;0.60;;
68449;SDS011;67758;39.572;2.652;2024-03-07T04:41:56;5.82;;;0.57;;
68449;SDS011;67758;39.572;2.652;2024-03-07T04:44:21;3.08;;;0.43;;
68449;SDS011;67758;39.572;2.652;2024-03-07T04:46:50;3.13;;;0.50;;
68449;SDS011;67758;39.572;2.652;2024-03-07T04:49:21;3.22;;;0.50;;
68449;SDS011;67758;39.572;2.652;2024-03-07T04:51:48;5.05;;;0.60;;
68449;SDS011;67758;39.572;2.652;2024-03-07T04:54:21;5.15;;;0.77;;
68449;SDS011;67758;39.572;2.652;2024-03-07T04:56:48;4.25;;;0.70;;
68449;SDS011;67758;39.572;2.652;2024-03-07T04:59:14;5.13;;;0.57;;
68449;SDS011;67758;39.572;2.652;2024-03-07T05:01:41;5.93;;;0.65;;
68449;SDS011;67758;39.572;2.652;2024-03-07T05:04:08;3.45;;;0.40;;
68449;SDS011;67758;39.572;2.652;2024-03-07T05:06:34;4.45;;;0.50;;
68449;SDS011;67758;39.572;2.652;2024-03-07T05:09:00;5.43;;;0.60;;
68449;SDS011;67758;39.572;2.652;2024-03-07T05:11:29;3.15;;;0.35;;
68449;SDS011;67758;39.572;2.652;2024-03-07T05:13:56;2.85;;;0.38;;
68449;SDS011;67758;39.572;2.652;2024-03-07T05:16:25;4.68;;;0.60;;
68449;SDS011;67758;39.572;2.652;2024-03-07T05:18:51;7.03;;;0.90;;
68449;SDS011;67758;39.572;2.652;2024-03-07T05:21:18;6.68;;;1.00;;
68449;SDS011;67758;39.572;2.652;2024-03-07T05:24:02;5.53;;;0.80;;
68449;SDS011;67758;39.572;2.652;2024-03-07T05:26:29;4.57;;;0.55;;
68449;SDS011;67758;39.572;2.652;2024-03-07T05:29:15;7.03;;;0.70;;
68449;SDS011;67758;39.572;2.652;2024-03-07T05:31:42;6.07;;;0.63;;
68449;SDS011;67758;39.572;2.652;2024-03-07T05:34:14;4.80;;;0.68;;
68449;SDS011;67758;39.572;2.652;2024-03-07T05:36:48;7.13;;;1.27;;
68449;SDS011;67758;39.572;2.652;2024-03-07T05:39:14;3.83;;;0.80;;
68449;SDS011;67758;39.572;2.652;2024-03-07T05:41:43;6.57;;;1.25;;
68449;SDS011;67758;39.572;2.652;2024-03-07T05:44:13;5.60;;;0.80;;
68449;SDS011;67758;39.572;2.652;2024-03-07T05:46:40;7.75;;;0.80;;
68449;SDS011;67758;39.572;2.652;2024-03-07T05:49:11;3.67;;;0.52;;
68449;SDS011;67758;39.572;2.652;2024-03-07T05:51:37;9.70;;;0.93;;
68449;SDS011;67758;39.572;2.652;2024-03-07T05:54:02;5.50;;;1.00;;
68449;SDS011;67758;39.572;2.652;2024-03-07T05:56:32;7.65;;;1.00;;
68449;SDS011;67758;39.572;2.652;2024-03-07T05:59:04;5.72;;;0.88;;
68449;SDS011;67758;39.572;2.652;2024-03-07T06:01:32;5.45;;;0.75;;
68449;SDS011;67758;39.572;2.652;2024-03-07T06:04:02;7.20;;;0.93;;
68449;SDS011;67758;39.572;2.652;2024-03-07T06:06:31;6.45;;;0.93;;
68449;SDS011;67758;39.572;2.652;2024-03-07T06:09:01;7.97;;;0.70;;
68449;SDS011;67758;39.572;2.652;2024-03-07T06:11:39;10.85;;;1.13;;
68449;SDS011;67758;39.572;2.652;2024-03-07T06:14:07;7.55;;;1.20;;
68449;SDS011;67758;39.572;2.652;2024-03-07T06:16:33;6.67;;;1.07;;
68449;SDS011;67758;39.572;2.652;2024-03-07T06:19:01;5.88;;;1.27;;
68449;SDS011;67758;39.572;2.652;2024-03-07T06:21:28;5.10;;;0.82;;
68449;SDS011;67758;39.572;2.652;2024-03-07T06:23:57;6.82;;;0.80;;
68449;SDS011;67758;39.572;2.652;2024-03-07T06:26:26;7.10;;;0.93;;
68449;SDS011;67758;39.572;2.652;2024-03-07T06:29:16;8.03;;;1.00;;
68449;SDS011;67758;39.572;2.652;2024-03-07T06:31:43;6.25;;;1.15;;
68449;SDS011;67758;39.572;2.652;2024-03-07T06:34:11;7.05;;;1.13;;
68449;SDS011;67758;39.572;2.652;2024-03-07T06:36:38;9.35;;;0.95;;
68449;SDS011;67758;39.572;2.652;2024-03-07T06:39:03;8.60;;;1.00;;
68449;SDS011;67758;39.572;2.652;2024-03-07T06:41:36;6.72;;;1.20;;
68449;SDS011;67758;39.572;2.652;2024-03-07T06:44:03;12.27;;;1.40;;
68449;SDS011;67758;39.572;2.652;2024-03-07T06:46:29;6.65;;;0.85;;
68449;SDS011;67758;39.572;2.652;2024-03-07T06:49:00;8.33;;;1.07;;
68449;SDS011;67758;39.572;2.652;2024-03-07T06:51:46;7.15;;;0.95;;
68449;SDS011;67758;39.572;2.652;2024-03-07T06:54:12;7.03;;;0.98;;
68449;SDS011;67758;39.572;2.652;2024-03-07T06:56:47;5.10;;;0.80;;
68449;SDS011;67758;39.572;2.652;2024-03-07T06:59:12;8.00;;;1.40;;
68449;SDS011;67758;39.572;2.652;2024-03-07T07:01:39;9.40;;;1.25;;
68449;SDS011;67758;39.572;2.652;2024-03-07T07:04:08;9.57;;;1.63;;
68449;SDS011;67758;39.572;2.652;2024-03-07T07:06:33;8.38;;;1.42;;
68449;SDS011;67758;39.572;2.652;2024-03-07T07:08:59;6.60;;;1.47;;
68449;SDS011;67758;39.572;2.652;2024-03-07T07:11:28;11.38;;;1.50;;
68449;SDS011;67758;39.572;2.652;2024-03-07T07:13:53;10.23;;;1.63;;
68449;SDS011;67758;39.572;2.652;2024-03-07T07:16:19;16.33;;;1.90;;
68449;SDS011;67758;39.572;2.652;2024-03-07T07:18:44;6.13;;;1.40;;
68449;SDS011;67758;39.572;2.652;2024-03-07T07:21:10;14.33;;;1.93;;
68449;SDS011;67758;39.572;2.652;2024-03-07T07:23:36;7.57;;;1.63;;
68449;SDS011;67758;39.572;2.652;2024-03-07T07:26:02;9.73;;;1.27;;
68449;SDS011;67758;39.572;2.652;2024-03-07T07:28:27;8.18;;;1.67;;
68449;SDS011;67758;39.572;2.652;2024-03-07T07:30:53;10.63;;;1.53;;
68449;SDS011;67758;39.572;2.652;2024-03-07T07:33:19;10.37;;;1.90;;
68449;SDS011;67758;39.572;2.652;2024-03-07T07:35:44;11.23;;;2.17;;
68449;SDS011;67758;39.572;2.652;2024-03-07T07:38:10;15.43;;;2.58;;
68449;SDS011;67758;39.572;2.652;2024-03-07T07:40:37;11.40;;;1.87;;
68449;SDS011;67758;39.572;2.652;2024-03-07T07:43:03;7.72;;;1.85;;
68449;SDS011;67758;39.572;2.652;2024-03-07T07:45:29;8.18;;;1.42;;
68449;SDS011;67758;39.572;2.652;2024-03-07T07:47:57;11.40;;;1.67;;
68449;SDS011;67758;39.572;2.652;2024-03-07T07:50:24;12.25;;;2.30;;
68449;SDS011;67758;39.572;2.652;2024-03-07T07:52:50;9.63;;;2.13;;
68449;SDS011;67758;39.572;2.652;2024-03-07T07:55:22;9.50;;;2.03;;
68449;SDS011;67758;39.572;2.652;2024-03-07T07:57:54;10.85;;;1.80;;
68449;SDS011;67758;39.572;2.652;2024-03-07T08:00:22;10.67;;;2.37;;
68449;SDS011;67758;39.572;2.652;2024-03-07T08:02:50;9.32;;;2.53;;
68449;SDS011;67758;39.572;2.652;2024-03-07T08:05:23;10.02;;;2.58;;
68449;SDS011;67758;39.572;2.652;2024-03-07T08:07:50;13.52;;;2.85;;
68449;SDS011;67758;39.572;2.652;2024-03-07T08:10:17;11.82;;;2.80;;
68449;SDS011;67758;39.572;2.652;2024-03-07T08:12:44;13.07;;;3.20;;
68449;SDS011;67758;39.572;2.652;2024-03-07T08:15:11;8.77;;;3.15;;
68449;SDS011;67758;39.572;2.652;2024-03-07T08:17:45;10.23;;;2.17;;
68449;SDS011;67758;39.572;2.652;2024-03-07T08:20:12;11.18;;;2.40;;
68449;SDS011;67758;39.572;2.652;2024-03-07T08:22:43;12.97;;;3.47;;
68449;SDS011;67758;39.572;2.652;2024-03-07T08:25:10;13.38;;;3.33;;
68449;SDS011;67758;39.572;2.652;2024-03-07T08:27:37;11.18;;;2.50;;
68449;SDS011;67758;39.572;2.652;2024-03-07T08:30:06;15.60;;;3.13;;
68449;SDS011;67758;39.572;2.652;2024-03-07T08:32:38;17.55;;;2.22;;
68449;SDS011;67758;39.572;2.652;2024-03-07T08:35:07;9.10;;;1.90;;
68449;SDS011;67758;39.572;2.652;2024-03-07T08:37:43;8.73;;;2.05;;
68449;SDS011;67758;39.572;2.652;2024-03-07T08:40:19;8.70;;;1.92;;
68449;SDS011;67758;39.572;2.652;2024-03-07T08:42:51;10.88;;;1.83;;
68449;SDS011;67758;39.572;2.652;2024-03-07T08:45:19;13.43;;;1.98;;
68449;SDS011;67758;39.572;2.652;2024-03-07T08:47:45;14.50;;;2.23;;
68449;SDS011;67758;39.572;2.652;2024-03-07T08:50:12;13.27;;;2.05;;
68449;SDS011;67758;39.572;2.652;2024-03-07T08:52:39;9.23;;;2.33;;
68449;SDS011;67758;39.572;2.652;2024-03-07T08:55:06;10.23;;;2.42;;
68449;SDS011;67758;39.572;2.652;2024-03-07T08:57:35;15.90;;;2.15;;
68449;SDS011;67758;39.572;2.652;2024-03-07T09:00:04;23.60;;;4.10;;
68449;SDS011;67758;39.572;2.652;2024-03-07T09:02:35;17.50;;;3.03;;
68449;SDS011;67758;39.572;2.652;2024-03-07T09:05:04;8.65;;;1.73;;
68449;SDS011;67758;39.572;2.652;2024-03-07T09:07:31;11.05;;;1.02;;
68449;SDS011;67758;39.572;2.652;2024-03-07T09:09:57;8.98;;;1.90;;
68449;SDS011;67758;39.572;2.652;2024-03-07T09:12:23;9.57;;;1.30;;
68449;SDS011;67758;39.572;2.652;2024-03-07T09:14:50;5.35;;;0.60;;
68449;SDS011;67758;39.572;2.652;2024-03-07T09:17:21;7.72;;;0.60;;
68449;SDS011;67758;39.572;2.652;2024-03-07T09:19:47;5.83;;;0.80;;
68449;SDS011;67758;39.572;2.652;2024-03-07T09:22:12;6.38;;;0.80;;
68449;SDS011;67758;39.572;2.652;2024-03-07T09:24:38;9.80;;;0.93;;
68449;SDS011;67758;39.572;2.652;2024-03-07T09:27:04;6.28;;;1.10;;
68449;SDS011;67758;39.572;2.652;2024-03-07T09:29:30;10.10;;;1.20;;
68449;SDS011;67758;39.572;2.652;2024-03-07T09:31:56;6.20;;;0.90;;
68449;SDS011;67758;39.572;2.652;2024-03-07T09:34:25;9.07;;;3.03;;
68449;SDS011;67758;39.572;2.652;2024-03-07T09:36:51;8.80;;;1.10;;
68449;SDS011;67758;39.572;2.652;2024-03-07T09:39:17;9.23;;;1.42;;
68449;SDS011;67758;39.572;2.652;2024-03-07T09:41:43;8.93;;;2.10;;
68449;SDS011;67758;39.572;2.652;2024-03-07T09:44:10;7.00;;;1.23;;
68449;SDS011;67758;39.572;2.652;2024-03-07T09:46:39;5.53;;;1.10;;
68449;SDS011;67758;39.572;2.652;2024-03-07T09:49:05;10.32;;;1.38;;
68449;SDS011;67758;39.572;2.652;2024-03-07T09:51:36;6.38;;;1.10;;
68449;SDS011;67758;39.572;2.652;2024-03-07T09:54:02;6.27;;;1.17;;
68449;SDS011;67758;39.572;2.652;2024-03-07T09:56:28;7.90;;;2.45;;
68449;SDS011;67758;39.572;2.652;2024-03-07T09:59:03;11.77;;;2.25;;
68449;SDS011;67758;39.572;2.652;2024-03-07T10:01:30;8.10;;;1.10;;
68449;SDS011;67758;39.572;2.652;2024-03-07T10:03:59;6.18;;;0.90;;
68449;SDS011;67758;39.572;2.652;2024-03-07T10:06:35;9.10;;;2.23;;
68449;SDS011;67758;39.572;2.652;2024-03-07T10:09:01;11.85;;;1.55;;
68449;SDS011;67758;39.572;2.652;2024-03-07T10:11:29;7.78;;;1.33;;
68449;SDS011;67758;39.572;2.652;2024-03-07T10:13:55;34.92;;;2.47;;
68449;SDS011;67758;39.572;2.652;2024-03-07T10:16:20;6.87;;;1.27;;
68449;SDS011;67758;39.572;2.652;2024-03-07T10:18:46;10.98;;;1.75;;
68449;SDS011;67758;39.572;2.652;2024-03-07T10:21:18;15.20;;;1.90;;
68449;SDS011;67758;39.572;2.652;2024-03-07T10:23:49;5.40;;;1.13;;
68449;SDS011;67758;39.572;2.652;2024-03-07T10:26:17;8.38;;;1.30;;
68449;SDS011;67758;39.572;2.652;2024-03-07T10:28:42;7.82;;;1.13;;
68449;SDS011;67758;39.572;2.652;2024-03-07T10:31:08;11.20;;;1.97;;
68449;SDS011;67758;39.572;2.652;2024-03-07T10:33:39;8.55;;;2.20;;
68449;SDS011;67758;39.572;2.652;2024-03-07T10:36:05;8.82;;;1.67;;
68449;SDS011;67758;39.572;2.652;2024-03-07T10:38:36;7.88;;;1.50;;
68449;SDS011;67758;39.572;2.652;2024-03-07T10:41:02;11.73;;;2.40;;
68449;SDS011;67758;39.572;2.652;2024-03-07T10:43:29;9.50;;;1.80;;
68449;SDS011;67758;39.572;2.652;2024-03-07T10:46:02;7.32;;;1.50;;
68449;SDS011;67758;39.572;2.652;2024-03-07T10:48:31;7.25;;;1.58;;
68449;SDS011;67758;39.572;2.652;2024-03-07T10:54:17;5.40;;;1.80;;
68449;SDS011;67758;39.572;2.652;2024-03-07T10:59:30;10.70;;;2.20;;
68449;SDS011;67758;39.572;2.652;2024-03-07T11:04:49;9.88;;;1.98;;
68449;SDS011;67758;39.572;2.652;2024-03-07T11:07:18;9.87;;;1.80;;
68449;SDS011;67758;39.572;2.652;2024-03-07T11:09:47;5.93;;;1.80;;
68449;SDS011;67758;39.572;2.652;2024-03-07T11:12:14;7.43;;;1.85;;
68449;SDS011;67758;39.572;2.652;2024-03-07T11:14:41;18.17;;;1.73;;
68449;SDS011;67758;39.572;2.652;2024-03-07T11:17:08;13.45;;;2.08;;
68449;SDS011;67758;39.572;2.652;2024-03-07T11:19:34;9.57;;;2.00;;
68449;SDS011;67758;39.572;2.652;2024-03-07T11:22:04;6.63;;;1.60;;
68449;SDS011;67758;39.572;2.652;2024-03-07T11:24:40;7.28;;;1.95;;
68449;SDS011;67758;39.572;2.652;2024-03-07T11:27:11;6.60;;;1.30;;
68449;SDS011;67758;39.572;2.652;2024-03-07T11:32:17;5.07;;;1.30;;
68449;SDS011;67758;39.572;2.652;2024-03-07T11:34:46;10.15;;;1.30;;
68449;SDS011;67758;39.572;2.652;2024-03-07T11:37:19;6.22;;;1.35;;
68449;SDS011;67758;39.572;2.652;2024-03-07T11:40:02;7.95;;;1.50;;
68449;SDS011;67758;39.572;2.652;2024-03-07T11:42:33;5.10;;;1.33;;
68449;SDS011;67758;39.572;2.652;2024-03-07T11:45:00;10.50;;;1.80;;
68449;SDS011;67758;39.572;2.652;2024-03-07T11:47:38;5.63;;;1.50;;
68449;SDS011;67758;39.572;2.652;2024-03-07T11:50:07;10.13;;;1.65;;
68449;SDS011;67758;39.572;2.652;2024-03-07T11:52:39;6.13;;;1.40;;
68449;SDS011;67758;39.572;2.652;2024-03-07T11:55:17;6.60;;;1.67;;
68449;SDS011;67758;39.572;2.652;2024-03-07T11:57:44;8.90;;;1.57;;
68449;SDS011;67758;39.572;2.652;2024-03-07T12:00:11;6.68;;;1.30;;
68449;SDS011;67758;39.572;2.652;2024-03-07T12:02:38;7.60;;;1.63;;
68449;SDS011;67758;39.572;2.652;2024-03-07T12:05:07;5.53;;;1.30;;
68449;SDS011;67758;39.572;2.652;2024-03-07T12:07:36;7.82;;;1.30;;
68449;SDS011;67758;39.572;2.652;2024-03-07T12:10:03;11.10;;;1.60;;
68449;SDS011;67758;39.572;2.652;2024-03-07T12:12:30;14.25;;;2.17;;
68449;SDS011;67758;39.572;2.652;2024-03-07T12:14:56;6.25;;;1.92;;
68449;SDS011;67758;39.572;2.652;2024-03-07T12:17:22;7.55;;;1.60;;
68449;SDS011;67758;39.572;2.652;2024-03-07T12:19:51;9.07;;;3.67;;
68449;SDS011;67758;39.572;2.652;2024-03-07T12:22:20;8.85;;;1.95;;
68449;SDS011;67758;39.572;2.652;2024-03-07T12:25:02;6.55;;;1.90;;
68449;SDS011;67758;39.572;2.652;2024-03-07T12:27:31;6.65;;;1.58;;
68449;SDS011;67758;39.572;2.652;2024-03-07T12:29:59;6.60;;;1.75;;
68449;SDS011;67758;39.572;2.652;2024-03-07T12:32:40;5.13;;;1.20;;
68449;SDS011;67758;39.572;2.652;2024-03-07T12:36:11;7.90;;;1.60;;
68449;SDS011;67758;39.572;2.652;2024-03-07T12:38:37;8.07;;;2.67;;
68449;SDS011;67758;39.572;2.652;2024-03-07T12:41:22;6.40;;;1.65;;
68449;SDS011;67758;39.572;2.652;2024-03-07T12:43:48;4.47;;;1.13;;
68449;SDS011;67758;39.572;2.652;2024-03-07T12:46:18;9.80;;;1.40;;
68449;SDS011;67758;39.572;2.652;2024-03-07T12:48:46;10.23;;;1.65;;
68449;SDS011;67758;39.572;2.652;2024-03-07T12:51:11;5.07;;;1.20;;
68449;SDS011;67758;39.572;2.652;2024-03-07T12:53:41;8.40;;;1.52;;
68449;SDS011;67758;39.572;2.652;2024-03-07T12:56:07;9.55;;;1.20;;
68449;SDS011;67758;39.572;2.652;2024-03-07T12:58:34;8.52;;;1.15;;
68449;SDS011;67758;39.572;2.652;2024-03-07T13:01:00;9.97;;;1.43;;
68449;SDS011;67758;39.572;2.652;2024-03-07T13:03:25;6.60;;;1.45;;
68449;SDS011;67758;39.572;2.652;2024-03-07T13:05:58;7.00;;;1.30;;
68449;SDS011;67758;39.572;2.652;2024-03-07T13:08:27;5.63;;;1.30;;
68449;SDS011;67758;39.572;2.652;2024-03-07T13:10:56;6.57;;;1.23;;
68449;SDS011;67758;39.572;2.652;2024-03-07T13:13:24;8.10;;;1.88;;
68449;SDS011;67758;39.572;2.652;2024-03-07T13:15:49;13.45;;;3.20;;
68449;SDS011;67758;39.572;2.652;2024-03-07T13:18:20;10.03;;;1.73;;
68449;SDS011;67758;39.572;2.652;2024-03-07T13:20:45;6.72;;;1.08;;
68449;SDS011;67758;39.572;2.652;2024-03-07T13:23:13;7.55;;;1.17;;
68449;SDS011;67758;39.572;2.652;2024-03-07T13:25:39;7.25;;;1.10;;
68449;SDS011;67758;39.572;2.652;2024-03-07T13:30:46;8.75;;;1.50;;
68449;SDS011;67758;39.572;2.652;2024-03-07T13:33:16;6.78;;;1.98;;
68449;SDS011;67758;39.572;2.652;2024-03-07T13:35:43;6.47;;;1.50;;
68449;SDS011;67758;39.572;2.652;2024-03-07T13:38:09;7.17;;;0.97;;
68449;SDS011;67758;39.572;2.652;2024-03-07T13:40:34;8.02;;;1.77;;
68449;SDS011;67758;39.572;2.652;2024-03-07T13:43:06;6.05;;;1.17;;
68449;SDS011;67758;39.572;2.652;2024-03-07T13:45:33;7.20;;;1.40;;
68449;SDS011;67758;39.572;2.652;2024-03-07T13:48:05;9.90;;;1.88;;
68449;SDS011;67758;39.572;2.652;2024-03-07T13:50:34;23.73;;;2.47;;
68449;SDS011;67758;39.572;2.652;2024-03-07T13:53:00;6.65;;;1.10;;
68449;SDS011;67758;39.572;2.652;2024-03-07T13:55:46;7.70;;;0.98;;
68449;SDS011;67758;39.572;2.652;2024-03-07T14:32:28;7.22;;;2.10;;
68449;SDS011;67758;39.572;2.652;2024-03-07T14:38:25;9.70;;;3.45;;
68449;SDS011;67758;39.572;2.652;2024-03-07T14:40:53;6.40;;;1.50;;
68449;SDS011;67758;39.572;2.652;2024-03-07T14:43:35;6.65;;;1.73;;
68449;SDS011;67758;39.572;2.652;2024-03-07T14:46:02;8.80;;;1.40;;
68449;SDS011;67758;39.572;2.652;2024-03-07T14:48:28;7.97;;;1.20;;
68449;SDS011;67758;39.572;2.652;2024-03-07T14:50:56;6.32;;;1.77;;
68449;SDS011;67758;39.572;2.652;2024-03-07T14:53:24;6.43;;;1.40;;
68449;SDS011;67758;39.572;2.652;2024-03-07T14:55:50;5.20;;;1.20;;
68449;SDS011;67758;39.572;2.652;2024-03-07T14:58:15;3.90;;;1.00;;
68449;SDS011;67758;39.572;2.652;2024-03-07T15:00:41;8.93;;;1.58;;
68449;SDS011;67758;39.572;2.652;2024-03-07T15:03:12;5.43;;;1.37;;
68449;SDS011;67758;39.572;2.652;2024-03-07T15:05:43;5.40;;;1.60;;
68449;SDS011;67758;39.572;2.652;2024-03-07T15:08:12;6.05;;;1.70;;
68449;SDS011;67758;39.572;2.652;2024-03-07T15:10:45;7.43;;;1.30;;
68449;SDS011;67758;39.572;2.652;2024-03-07T15:13:17;7.53;;;1.27;;
68449;SDS011;67758;39.572;2.652;2024-03-07T15:15:43;7.20;;;1.37;;
68449;SDS011;67758;39.572;2.652;2024-03-07T15:18:09;7.25;;;1.55;;
68449;SDS011;67758;39.572;2.652;2024-03-07T15:20:36;7.00;;;1.30;;
68449;SDS011;67758;39.572;2.652;2024-03-07T15:23:06;6.28;;;1.30;;
68449;SDS011;67758;39.572;2.652;2024-03-07T15:25:35;5.20;;;1.40;;
68449;SDS011;67758;39.572;2.652;2024-03-07T15:28:02;8.25;;;1.45;;
68449;SDS011;67758;39.572;2.652;2024-03-07T15:30:29;6.07;;;1.30;;
68449;SDS011;67758;39.572;2.652;2024-03-07T15:33:00;5.38;;;1.30;;
68449;SDS011;67758;39.572;2.652;2024-03-07T15:35:26;9.45;;;1.10;;
68449;SDS011;67758;39.572;2.652;2024-03-07T15:37:52;8.85;;;1.35;;
68449;SDS011;67758;39.572;2.652;2024-03-07T15:40:21;6.53;;;1.05;;
68449;SDS011;67758;39.572;2.652;2024-03-07T15:42:48;7.50;;;1.25;;